sensor_id;sensor_type;location;lat;lon;timestamp;P1;P2;P0
55686;PMS5003;41911;52.362;4.978;2022-12-31T00:01:33;1.0;1.0;
55686;PMS5003;41911;52.362;4.978;2022-12-31T00:02:04;2.0;2.0;
55686;PMS5003;41911;52.362;4.978;2022-12-31T00:02:37;1.0;0.0;
55686;PMS5003;41911;52.362;4.978;2022-12-31T00:03:09;3.0;1.0;
55686;PMS5003;41911;52.362;4.978;2022-12-31T00:03:40;2.0;1.0;
55686;PMS5003;41911;52.362;4.978;2022-12-31T00:04:12;3.0;1.0;
55686;PMS5003;41911;52.362;4.978;2022-12-31T00:04:43;1.0;1.0;
55686;PMS5003;41911;52.362;4.978;2022-12-31T00:05:15;3.0;3.0;
55686;PMS5003;41911;52.362;4.978;2022-12-31T00:05:47;1.0;1.0;
55686;PMS5003;41911;52.362;4.978;2022-12-31T00:06:19;1.0;1.0;
55686;PMS5003;41911;52.362;4.978;2022-12-31T00:06:51;3.0;3.0;
55686;PMS5003;41911;52.362;4.978;2022-12-31T00:07:23;2.0;2.0;
55686;PMS5003;41911;52.362;4.978;2022-12-31T00:07:54;2.0;2.0;
55686;PMS5003;41911;52.362;4.978;2022-12-31T00:08:25;2.0;2.0;
55686;PMS5003;41911;52.362;4.978;2022-12-31T00:08:57;2.0;2.0;
55686;PMS5003;41911;52.362;4.978;2022-12-31T00:09:31;1.0;1.0;
55686;PMS5003;41911;52.362;4.978;2022-12-31T00:10:03;3.0;1.0;
55686;PMS5003;41911;52.362;4.978;2022-12-31T00:10:34;2.0;2.0;
55686;PMS5003;41911;52.362;4.978;2022-12-31T00:11:05;2.0;2.0;
55686;PMS5003;41911;52.362;4.978;2022-12-31T00:11:36;2.0;2.0;
55686;PMS5003;41911;52.362;4.978;2022-12-31T00:12:08;1.0;1.0;
55686;PMS5003;41911;52.362;4.978;2022-12-31T00:12:39;2.0;1.0;
55686;PMS5003;41911;52.362;4.978;2022-12-31T00:13:10;3.0;2.0;
55686;PMS5003;41911;52.362;4.978;2022-12-31T00:13:42;1.0;1.0;
55686;PMS5003;41911;52.362;4.978;2022-12-31T00:14:14;1.0;1.0;
55686;PMS5003;41911;52.362;4.978;2022-12-31T00:14:45;2.0;2.0;
55686;PMS5003;41911;52.362;4.978;2022-12-31T00:15:16;1.0;1.0;
55686;PMS5003;41911;52.362;4.978;2022-12-31T00:15:47;3.0;2.0;
55686;PMS5003;41911;52.362;4.978;2022-12-31T00:16:18;2.0;2.0;
55686;PMS5003;41911;52.362;4.978;2022-12-31T00:16:51;2.0;2.0;
55686;PMS5003;41911;52.362;4.978;2022-12-31T00:17:22;2.0;2.0;
55686;PMS5003;41911;52.362;4.978;2022-12-31T00:17:53;5.0;3.0;
55686;PMS5003;41911;52.362;4.978;2022-12-31T00:18:24;2.0;2.0;
55686;PMS5003;41911;52.362;4.978;2022-12-31T00:18:56;0.0;0.0;
55686;PMS5003;41911;52.362;4.978;2022-12-31T00:19:28;1.0;0.0;
55686;PMS5003;41911;52.362;4.978;2022-12-31T00:19:59;2.0;2.0;
55686;PMS5003;41911;52.362;4.978;2022-12-31T00:20:30;2.0;1.0;
55686;PMS5003;41911;52.362;4.978;2022-12-31T00:21:04;2.0;2.0;
55686;PMS5003;41911;52.362;4.978;2022-12-31T00:21:36;1.0;1.0;
55686;PMS5003;41911;52.362;4.978;2022-12-31T00:22:08;3.0;3.0;
55686;PMS5003;41911;52.362;4.978;2022-12-31T00:22:39;1.0;1.0;
55686;PMS5003;41911;52.362;4.978;2022-12-31T00:23:10;2.0;2.0;
55686;PMS5003;41911;52.362;4.978;2022-12-31T00:23:41;2.0;2.0;
55686;PMS5003;41911;52.362;4.978;2022-12-31T00:24:12;3.0;2.0;
55686;PMS5003;41911;52.362;4.978;2022-12-31T00:24:43;0.0;0.0;
55686;PMS5003;41911;52.362;4.978;2022-12-31T00:25:14;1.0;1.0;
55686;PMS5003;41911;52.362;4.978;2022-12-31T00:25:46;2.0;1.0;
55686;PMS5003;41911;52.362;4.978;2022-12-31T00:26:18;3.0;2.0;
55686;PMS5003;41911;52.362;4.978;2022-12-31T00:26:53;3.0;2.0;
55686;PMS5003;41911;52.362;4.978;2022-12-31T00:27:24;1.0;1.0;
55686;PMS5003;41911;52.362;4.978;2022-12-31T00:27:55;0.0;0.0;
55686;PMS5003;41911;52.362;4.978;2022-12-31T00:28:26;1.0;0.0;
55686;PMS5003;41911;52.362;4.978;2022-12-31T00:28:57;2.0;2.0;
55686;PMS5003;41911;52.362;4.978;2022-12-31T00:29:29;3.0;3.0;
55686;PMS5003;41911;52.362;4.978;2022-12-31T00:30:00;1.0;1.0;
55686;PMS5003;41911;52.362;4.978;2022-12-31T00:30:32;1.0;1.0;
55686;PMS5003;41911;52.362;4.978;2022-12-31T00:31:05;2.0;2.0;
55686;PMS5003;41911;52.362;4.978;2022-12-31T00:31:38;2.0;1.0;
55686;PMS5003;41911;52.362;4.978;2022-12-31T00:32:09;2.0;1.0;
55686;PMS5003;41911;52.362;4.978;2022-12-31T00:32:40;3.0;2.0;
55686;PMS5003;41911;52.362;4.978;2022-12-31T00:33:11;2.0;2.0;
55686;PMS5003;41911;52.362;4.978;2022-12-31T00:33:42;2.0;2.0;
55686;PMS5003;41911;52.362;4.978;2022-12-31T00:34:13;1.0;1.0;
55686;PMS5003;41911;52.362;4.978;2022-12-31T00:34:44;3.0;2.0;
55686;PMS5003;41911;52.362;4.978;2022-12-31T00:35:15;2.0;1.0;
55686;PMS5003;41911;52.362;4.978;2022-12-31T00:35:46;1.0;1.0;
55686;PMS5003;41911;52.362;4.978;2022-12-31T00:36:18;1.0;1.0;
55686;PMS5003;41911;52.362;4.978;2022-12-31T00:36:50;1.0;0.0;
55686;PMS5003;41911;52.362;4.978;2022-12-31T00:37:23;3.0;1.0;
55686;PMS5003;41911;52.362;4.978;2022-12-31T00:37:54;1.0;1.0;
55686;PMS5003;41911;52.362;4.978;2022-12-31T00:38:25;0.0;0.0;
55686;PMS5003;41911;52.362;4.978;2022-12-31T00:38:56;1.0;1.0;
55686;PMS5003;41911;52.362;4.978;2022-12-31T00:39:29;3.0;2.0;
55686;PMS5003;41911;52.362;4.978;2022-12-31T00:40:02;1.0;1.0;
55686;PMS5003;41911;52.362;4.978;2022-12-31T00:40:33;2.0;2.0;
55686;PMS5003;41911;52.362;4.978;2022-12-31T00:41:04;4.0;3.0;
55686;PMS5003;41911;52.362;4.978;2022-12-31T00:41:36;0.0;0.0;
55686;PMS5003;41911;52.362;4.978;2022-12-31T00:42:07;1.0;1.0;
55686;PMS5003;41911;52.362;4.978;2022-12-31T00:42:39;3.0;3.0;
55686;PMS5003;41911;52.362;4.978;2022-12-31T00:43:10;3.0;1.0;
55686;PMS5003;41911;52.362;4.978;2022-12-31T00:43:41;1.0;1.0;
55686;PMS5003;41911;52.362;4.978;2022-12-31T00:44:13;1.0;1.0;
55686;PMS5003;41911;52.362;4.978;2022-12-31T00:44:44;2.0;2.0;
55686;PMS5003;41911;52.362;4.978;2022-12-31T00:45:16;2.0;1.0;
55686;PMS5003;41911;52.362;4.978;2022-12-31T00:45:47;0.0;0.0;
55686;PMS5003;41911;52.362;4.978;2022-12-31T00:46:18;1.0;1.0;
55686;PMS5003;41911;52.362;4.978;2022-12-31T00:46:49;1.0;1.0;
55686;PMS5003;41911;52.362;4.978;2022-12-31T00:47:20;1.0;1.0;
55686;PMS5003;41911;52.362;4.978;2022-12-31T00:47:51;1.0;0.0;
55686;PMS5003;41911;52.362;4.978;2022-12-31T00:48:22;1.0;1.0;
55686;PMS5003;41911;52.362;4.978;2022-12-31T00:48:53;4.0;3.0;
55686;PMS5003;41911;52.362;4.978;2022-12-31T00:49:24;2.0;2.0;
55686;PMS5003;41911;52.362;4.978;2022-12-31T00:49:55;1.0;1.0;
55686;PMS5003;41911;52.362;4.978;2022-12-31T00:50:26;1.0;1.0;
55686;PMS5003;41911;52.362;4.978;2022-12-31T00:50:58;3.0;1.0;
55686;PMS5003;41911;52.362;4.978;2022-12-31T00:51:30;4.0;2.0;
55686;PMS5003;41911;52.362;4.978;2022-12-31T00:52:01;3.0;2.0;
55686;PMS5003;41911;52.362;4.978;2022-12-31T00:52:32;2.0;1.0;
55686;PMS5003;41911;52.362;4.978;2022-12-31T00:53:03;1.0;1.0;
55686;PMS5003;41911;52.362;4.978;2022-12-31T00:53:34;3.0;1.0;
55686;PMS5003;41911;52.362;4.978;2022-12-31T00:54:06;3.0;2.0;
55686;PMS5003;41911;52.362;4.978;2022-12-31T00:54:37;2.0;1.0;
55686;PMS5003;41911;52.362;4.978;2022-12-31T00:55:08;2.0;2.0;
55686;PMS5003;41911;52.362;4.978;2022-12-31T00:55:39;1.0;1.0;
55686;PMS5003;41911;52.362;4.978;2022-12-31T00:56:11;2.0;2.0;
55686;PMS5003;41911;52.362;4.978;2022-12-31T00:56:43;3.0;1.0;
55686;PMS5003;41911;52.362;4.978;2022-12-31T00:57:19;1.0;1.0;
55686;PMS5003;41911;52.362;4.978;2022-12-31T00:57:50;1.0;0.0;
55686;PMS5003;41911;52.362;4.978;2022-12-31T00:58:21;0.0;0.0;
55686;PMS5003;41911;52.362;4.978;2022-12-31T00:58:52;2.0;2.0;
55686;PMS5003;41911;52.362;4.978;2022-12-31T00:59:24;0.0;0.0;
55686;PMS5003;41911;52.362;4.978;2022-12-31T00:59:54;0.0;0.0;
55686;PMS5003;41911;52.362;4.978;2022-12-31T01:00:25;1.0;1.0;
55686;PMS5003;41911;52.362;4.978;2022-12-31T01:00:56;2.0;1.0;
55686;PMS5003;41911;52.362;4.978;2022-12-31T01:01:28;1.0;1.0;
55686;PMS5003;41911;52.362;4.978;2022-12-31T01:02:00;1.0;1.0;
55686;PMS5003;41911;52.362;4.978;2022-12-31T01:02:32;1.0;1.0;
55686;PMS5003;41911;52.362;4.978;2022-12-31T01:03:04;2.0;1.0;
55686;PMS5003;41911;52.362;4.978;2022-12-31T01:03:36;1.0;1.0;
55686;PMS5003;41911;52.362;4.978;2022-12-31T01:04:09;2.0;2.0;
55686;PMS5003;41911;52.362;4.978;2022-12-31T01:04:41;0.0;0.0;
55686;PMS5003;41911;52.362;4.978;2022-12-31T01:05:12;1.0;0.0;
55686;PMS5003;41911;52.362;4.978;2022-12-31T01:05:43;1.0;0.0;
55686;PMS5003;41911;52.362;4.978;2022-12-31T01:06:14;1.0;0.0;
55686;PMS5003;41911;52.362;4.978;2022-12-31T01:06:46;0.0;0.0;
55686;PMS5003;41911;52.362;4.978;2022-12-31T01:07:18;1.0;0.0;
55686;PMS5003;41911;52.362;4.978;2022-12-31T01:07:49;1.0;0.0;
55686;PMS5003;41911;52.362;4.978;2022-12-31T01:08:20;0.0;0.0;
55686;PMS5003;41911;52.362;4.978;2022-12-31T01:08:51;1.0;1.0;
55686;PMS5003;41911;52.362;4.978;2022-12-31T01:09:23;1.0;0.0;
55686;PMS5003;41911;52.362;4.978;2022-12-31T01:09:54;2.0;1.0;
55686;PMS5003;41911;52.362;4.978;2022-12-31T01:10:25;0.0;0.0;
55686;PMS5003;41911;52.362;4.978;2022-12-31T01:10:56;1.0;0.0;
55686;PMS5003;41911;52.362;4.978;2022-12-31T01:11:28;1.0;1.0;
55686;PMS5003;41911;52.362;4.978;2022-12-31T01:11:59;0.0;0.0;
55686;PMS5003;41911;52.362;4.978;2022-12-31T01:12:30;1.0;1.0;
55686;PMS5003;41911;52.362;4.978;2022-12-31T01:13:01;0.0;0.0;
55686;PMS5003;41911;52.362;4.978;2022-12-31T01:13:33;4.0;2.0;
55686;PMS5003;41911;52.362;4.978;2022-12-31T01:14:05;1.0;1.0;
55686;PMS5003;41911;52.362;4.978;2022-12-31T01:14:37;2.0;1.0;
55686;PMS5003;41911;52.362;4.978;2022-12-31T01:15:08;0.0;0.0;
55686;PMS5003;41911;52.362;4.978;2022-12-31T01:15:40;2.0;1.0;
55686;PMS5003;41911;52.362;4.978;2022-12-31T01:16:11;2.0;1.0;
55686;PMS5003;41911;52.362;4.978;2022-12-31T01:16:43;0.0;0.0;
55686;PMS5003;41911;52.362;4.978;2022-12-31T01:17:16;1.0;1.0;
55686;PMS5003;41911;52.362;4.978;2022-12-31T01:17:47;0.0;0.0;
55686;PMS5003;41911;52.362;4.978;2022-12-31T01:18:19;1.0;1.0;
55686;PMS5003;41911;52.362;4.978;2022-12-31T01:18:50;2.0;1.0;
55686;PMS5003;41911;52.362;4.978;2022-12-31T01:19:24;1.0;1.0;
55686;PMS5003;41911;52.362;4.978;2022-12-31T01:19:56;2.0;2.0;
55686;PMS5003;41911;52.362;4.978;2022-12-31T01:20:27;1.0;0.0;
55686;PMS5003;41911;52.362;4.978;2022-12-31T01:21:00;3.0;1.0;
55686;PMS5003;41911;52.362;4.978;2022-12-31T01:21:32;2.0;1.0;
55686;PMS5003;41911;52.362;4.978;2022-12-31T01:22:04;3.0;2.0;
55686;PMS5003;41911;52.362;4.978;2022-12-31T01:22:35;1.0;1.0;
55686;PMS5003;41911;52.362;4.978;2022-12-31T01:23:11;1.0;1.0;
55686;PMS5003;41911;52.362;4.978;2022-12-31T01:23:42;1.0;1.0;
55686;PMS5003;41911;52.362;4.978;2022-12-31T01:24:13;4.0;2.0;
55686;PMS5003;41911;52.362;4.978;2022-12-31T01:24:44;1.0;1.0;
55686;PMS5003;41911;52.362;4.978;2022-12-31T01:25:15;3.0;1.0;
55686;PMS5003;41911;52.362;4.978;2022-12-31T01:25:46;1.0;1.0;
55686;PMS5003;41911;52.362;4.978;2022-12-31T01:26:17;4.0;1.0;
55686;PMS5003;41911;52.362;4.978;2022-12-31T01:26:49;3.0;2.0;
55686;PMS5003;41911;52.362;4.978;2022-12-31T01:27:20;1.0;0.0;
55686;PMS5003;41911;52.362;4.978;2022-12-31T01:27:52;2.0;1.0;
55686;PMS5003;41911;52.362;4.978;2022-12-31T01:28:23;2.0;2.0;
55686;PMS5003;41911;52.362;4.978;2022-12-31T01:28:54;1.0;1.0;
55686;PMS5003;41911;52.362;4.978;2022-12-31T01:29:25;2.0;1.0;
55686;PMS5003;41911;52.362;4.978;2022-12-31T01:29:56;2.0;2.0;
55686;PMS5003;41911;52.362;4.978;2022-12-31T01:30:27;3.0;1.0;
55686;PMS5003;41911;52.362;4.978;2022-12-31T01:31:01;3.0;2.0;
55686;PMS5003;41911;52.362;4.978;2022-12-31T01:31:34;1.0;1.0;
55686;PMS5003;41911;52.362;4.978;2022-12-31T01:32:06;4.0;1.0;
55686;PMS5003;41911;52.362;4.978;2022-12-31T01:32:37;2.0;2.0;
55686;PMS5003;41911;52.362;4.978;2022-12-31T01:33:08;2.0;1.0;
55686;PMS5003;41911;52.362;4.978;2022-12-31T01:33:39;2.0;2.0;
55686;PMS5003;41911;52.362;4.978;2022-12-31T01:34:10;1.0;1.0;
55686;PMS5003;41911;52.362;4.978;2022-12-31T01:34:41;2.0;2.0;
55686;PMS5003;41911;52.362;4.978;2022-12-31T01:35:12;2.0;2.0;
55686;PMS5003;41911;52.362;4.978;2022-12-31T01:35:43;4.0;4.0;
55686;PMS5003;41911;52.362;4.978;2022-12-31T01:36:16;1.0;1.0;
55686;PMS5003;41911;52.362;4.978;2022-12-31T01:36:49;1.0;1.0;
55686;PMS5003;41911;52.362;4.978;2022-12-31T01:37:20;3.0;2.0;
55686;PMS5003;41911;52.362;4.978;2022-12-31T01:37:51;2.0;2.0;
55686;PMS5003;41911;52.362;4.978;2022-12-31T01:38:22;3.0;2.0;
55686;PMS5003;41911;52.362;4.978;2022-12-31T01:38:53;3.0;2.0;
55686;PMS5003;41911;52.362;4.978;2022-12-31T01:39:27;2.0;1.0;
55686;PMS5003;41911;52.362;4.978;2022-12-31T01:39:58;3.0;2.0;
55686;PMS5003;41911;52.362;4.978;2022-12-31T01:40:29;1.0;1.0;
55686;PMS5003;41911;52.362;4.978;2022-12-31T01:41:00;3.0;3.0;
55686;PMS5003;41911;52.362;4.978;2022-12-31T01:41:32;2.0;1.0;
55686;PMS5003;41911;52.362;4.978;2022-12-31T01:42:05;3.0;2.0;
55686;PMS5003;41911;52.362;4.978;2022-12-31T01:42:39;3.0;2.0;
55686;PMS5003;41911;52.362;4.978;2022-12-31T01:43:13;1.0;1.0;
55686;PMS5003;41911;52.362;4.978;2022-12-31T01:43:47;2.0;2.0;
55686;PMS5003;41911;52.362;4.978;2022-12-31T01:44:46;3.0;3.0;
55686;PMS5003;41911;52.362;4.978;2022-12-31T01:45:20;3.0;3.0;
55686;PMS5003;41911;52.362;4.978;2022-12-31T01:45:53;2.0;2.0;
55686;PMS5003;41911;52.362;4.978;2022-12-31T01:46:25;4.0;3.0;
55686;PMS5003;41911;52.362;4.978;2022-12-31T01:47:03;2.0;2.0;
55686;PMS5003;41911;52.362;4.978;2022-12-31T01:47:43;1.0;1.0;
55686;PMS5003;41911;52.362;4.978;2022-12-31T01:48:18;3.0;3.0;
55686;PMS5003;41911;52.362;4.978;2022-12-31T01:48:54;5.0;2.0;
55686;PMS5003;41911;52.362;4.978;2022-12-31T01:49:34;2.0;1.0;
55686;PMS5003;41911;52.362;4.978;2022-12-31T01:50:12;2.0;2.0;
55686;PMS5003;41911;52.362;4.978;2022-12-31T01:50:47;2.0;1.0;
55686;PMS5003;41911;52.362;4.978;2022-12-31T01:51:20;2.0;2.0;
55686;PMS5003;41911;52.362;4.978;2022-12-31T01:51:52;2.0;1.0;
55686;PMS5003;41911;52.362;4.978;2022-12-31T01:52:30;2.0;2.0;
55686;PMS5003;41911;52.362;4.978;2022-12-31T01:53:04;3.0;2.0;
55686;PMS5003;41911;52.362;4.978;2022-12-31T01:53:39;4.0;2.0;
55686;PMS5003;41911;52.362;4.978;2022-12-31T01:54:11;1.0;1.0;
55686;PMS5003;41911;52.362;4.978;2022-12-31T01:54:47;3.0;2.0;
55686;PMS5003;41911;52.362;4.978;2022-12-31T01:55:22;3.0;1.0;
55686;PMS5003;41911;52.362;4.978;2022-12-31T01:55:58;4.0;2.0;
55686;PMS5003;41911;52.362;4.978;2022-12-31T01:56:29;1.0;1.0;
55686;PMS5003;41911;52.362;4.978;2022-12-31T01:57:02;2.0;2.0;
55686;PMS5003;41911;52.362;4.978;2022-12-31T01:57:33;3.0;3.0;
55686;PMS5003;41911;52.362;4.978;2022-12-31T01:58:07;3.0;2.0;
55686;PMS5003;41911;52.362;4.978;2022-12-31T01:58:43;3.0;2.0;
55686;PMS5003;41911;52.362;4.978;2022-12-31T01:59:19;1.0;1.0;
55686;PMS5003;41911;52.362;4.978;2022-12-31T01:59:53;1.0;1.0;
55686;PMS5003;41911;52.362;4.978;2022-12-31T02:00:25;2.0;1.0;
55686;PMS5003;41911;52.362;4.978;2022-12-31T02:00:59;2.0;1.0;
55686;PMS5003;41911;52.362;4.978;2022-12-31T02:01:30;2.0;1.0;
55686;PMS5003;41911;52.362;4.978;2022-12-31T02:02:02;0.0;0.0;
55686;PMS5003;41911;52.362;4.978;2022-12-31T02:02:34;4.0;2.0;
55686;PMS5003;41911;52.362;4.978;2022-12-31T02:03:05;2.0;2.0;
55686;PMS5003;41911;52.362;4.978;2022-12-31T02:03:37;2.0;1.0;
55686;PMS5003;41911;52.362;4.978;2022-12-31T02:04:10;3.0;3.0;
55686;PMS5003;41911;52.362;4.978;2022-12-31T02:04:42;2.0;2.0;
55686;PMS5003;41911;52.362;4.978;2022-12-31T02:05:17;1.0;1.0;
55686;PMS5003;41911;52.362;4.978;2022-12-31T02:05:53;3.0;3.0;
55686;PMS5003;41911;52.362;4.978;2022-12-31T02:06:28;4.0;2.0;
55686;PMS5003;41911;52.362;4.978;2022-12-31T02:07:06;2.0;2.0;
55686;PMS5003;41911;52.362;4.978;2022-12-31T02:07:38;3.0;2.0;
55686;PMS5003;41911;52.362;4.978;2022-12-31T02:08:09;1.0;0.0;
55686;PMS5003;41911;52.362;4.978;2022-12-31T02:08:41;4.0;3.0;
55686;PMS5003;41911;52.362;4.978;2022-12-31T02:09:13;2.0;2.0;
55686;PMS5003;41911;52.362;4.978;2022-12-31T02:09:44;4.0;2.0;
55686;PMS5003;41911;52.362;4.978;2022-12-31T02:10:15;2.0;2.0;
55686;PMS5003;41911;52.362;4.978;2022-12-31T02:10:47;3.0;2.0;
55686;PMS5003;41911;52.362;4.978;2022-12-31T02:11:20;3.0;3.0;
55686;PMS5003;41911;52.362;4.978;2022-12-31T02:11:53;3.0;2.0;
55686;PMS5003;41911;52.362;4.978;2022-12-31T02:12:24;2.0;2.0;
55686;PMS5003;41911;52.362;4.978;2022-12-31T02:12:55;0.0;0.0;
55686;PMS5003;41911;52.362;4.978;2022-12-31T02:13:27;2.0;2.0;
55686;PMS5003;41911;52.362;4.978;2022-12-31T02:13:59;3.0;2.0;
55686;PMS5003;41911;52.362;4.978;2022-12-31T02:14:36;1.0;1.0;
55686;PMS5003;41911;52.362;4.978;2022-12-31T02:15:09;2.0;1.0;
55686;PMS5003;41911;52.362;4.978;2022-12-31T02:15:44;3.0;2.0;
55686;PMS5003;41911;52.362;4.978;2022-12-31T02:16:24;3.0;2.0;
55686;PMS5003;41911;52.362;4.978;2022-12-31T02:17:05;5.0;3.0;
55686;PMS5003;41911;52.362;4.978;2022-12-31T02:17:45;3.0;3.0;
55686;PMS5003;41911;52.362;4.978;2022-12-31T02:18:33;5.0;3.0;
55686;PMS5003;41911;52.362;4.978;2022-12-31T02:19:28;4.0;4.0;
55686;PMS5003;41911;52.362;4.978;2022-12-31T02:22:15;3.0;2.0;
55686;PMS5003;41911;52.362;4.978;2022-12-31T02:23:12;3.0;3.0;
55686;PMS5003;41911;52.362;4.978;2022-12-31T02:23:59;1.0;1.0;
55686;PMS5003;41911;52.362;4.978;2022-12-31T02:26:49;4.0;3.0;
55686;PMS5003;41911;52.362;4.978;2022-12-31T02:27:36;5.0;3.0;
55686;PMS5003;41911;52.362;4.978;2022-12-31T02:28:24;4.0;2.0;
55686;PMS5003;41911;52.362;4.978;2022-12-31T02:29:24;8.0;4.0;
55686;PMS5003;41911;52.362;4.978;2022-12-31T02:30:10;4.0;2.0;
55686;PMS5003;41911;52.362;4.978;2022-12-31T02:30:45;4.0;3.0;
55686;PMS5003;41911;52.362;4.978;2022-12-31T02:31:25;3.0;2.0;
55686;PMS5003;41911;52.362;4.978;2022-12-31T02:32:04;6.0;4.0;
55686;PMS5003;41911;52.362;4.978;2022-12-31T02:32:47;5.0;5.0;
55686;PMS5003;41911;52.362;4.978;2022-12-31T02:33:25;2.0;2.0;
55686;PMS5003;41911;52.362;4.978;2022-12-31T02:34:04;4.0;3.0;
55686;PMS5003;41911;52.362;4.978;2022-12-31T02:34:40;3.0;2.0;
55686;PMS5003;41911;52.362;4.978;2022-12-31T02:35:23;7.0;3.0;
55686;PMS5003;41911;52.362;4.978;2022-12-31T02:36:00;7.0;5.0;
55686;PMS5003;41911;52.362;4.978;2022-12-31T02:36:37;2.0;2.0;
55686;PMS5003;41911;52.362;4.978;2022-12-31T02:37:13;2.0;1.0;
55686;PMS5003;41911;52.362;4.978;2022-12-31T02:37:47;6.0;4.0;
55686;PMS5003;41911;52.362;4.978;2022-12-31T02:38:24;4.0;3.0;
55686;PMS5003;41911;52.362;4.978;2022-12-31T02:39:00;5.0;4.0;
55686;PMS5003;41911;52.362;4.978;2022-12-31T02:39:33;3.0;3.0;
55686;PMS5003;41911;52.362;4.978;2022-12-31T02:40:06;3.0;3.0;
55686;PMS5003;41911;52.362;4.978;2022-12-31T02:40:42;4.0;4.0;
55686;PMS5003;41911;52.362;4.978;2022-12-31T02:41:15;4.0;3.0;
55686;PMS5003;41911;52.362;4.978;2022-12-31T02:41:48;4.0;4.0;
55686;PMS5003;41911;52.362;4.978;2022-12-31T02:42:20;1.0;1.0;
55686;PMS5003;41911;52.362;4.978;2022-12-31T02:42:51;5.0;4.0;
55686;PMS5003;41911;52.362;4.978;2022-12-31T02:43:23;4.0;3.0;
55686;PMS5003;41911;52.362;4.978;2022-12-31T02:43:54;3.0;3.0;
55686;PMS5003;41911;52.362;4.978;2022-12-31T02:44:26;6.0;3.0;
55686;PMS5003;41911;52.362;4.978;2022-12-31T02:44:58;4.0;2.0;
55686;PMS5003;41911;52.362;4.978;2022-12-31T02:45:30;6.0;4.0;
55686;PMS5003;41911;52.362;4.978;2022-12-31T02:46:06;4.0;3.0;
55686;PMS5003;41911;52.362;4.978;2022-12-31T02:46:45;4.0;3.0;
55686;PMS5003;41911;52.362;4.978;2022-12-31T02:47:26;4.0;2.0;
55686;PMS5003;41911;52.362;4.978;2022-12-31T02:48:14;5.0;4.0;
55686;PMS5003;41911;52.362;4.978;2022-12-31T02:48:54;6.0;3.0;
55686;PMS5003;41911;52.362;4.978;2022-12-31T02:49:36;4.0;4.0;
55686;PMS5003;41911;52.362;4.978;2022-12-31T02:50:21;6.0;3.0;
55686;PMS5003;41911;52.362;4.978;2022-12-31T02:51:07;3.0;3.0;
55686;PMS5003;41911;52.362;4.978;2022-12-31T02:51:48;4.0;4.0;
55686;PMS5003;41911;52.362;4.978;2022-12-31T02:52:30;8.0;4.0;
55686;PMS5003;41911;52.362;4.978;2022-12-31T02:53:17;4.0;3.0;
55686;PMS5003;41911;52.362;4.978;2022-12-31T02:54:07;7.0;4.0;
55686;PMS5003;41911;52.362;4.978;2022-12-31T02:54:50;4.0;4.0;
55686;PMS5003;41911;52.362;4.978;2022-12-31T02:55:30;4.0;4.0;
55686;PMS5003;41911;52.362;4.978;2022-12-31T02:56:08;5.0;4.0;
55686;PMS5003;41911;52.362;4.978;2022-12-31T02:56:50;6.0;3.0;
55686;PMS5003;41911;52.362;4.978;2022-12-31T02:57:31;5.0;4.0;
55686;PMS5003;41911;52.362;4.978;2022-12-31T02:58:10;4.0;3.0;
55686;PMS5003;41911;52.362;4.978;2022-12-31T02:58:51;5.0;4.0;
55686;PMS5003;41911;52.362;4.978;2022-12-31T02:59:33;4.0;4.0;
55686;PMS5003;41911;52.362;4.978;2022-12-31T03:00:13;5.0;5.0;
55686;PMS5003;41911;52.362;4.978;2022-12-31T03:00:47;4.0;4.0;
55686;PMS5003;41911;52.362;4.978;2022-12-31T03:01:23;5.0;4.0;
55686;PMS5003;41911;52.362;4.978;2022-12-31T03:02:01;4.0;4.0;
55686;PMS5003;41911;52.362;4.978;2022-12-31T03:02:40;5.0;4.0;
55686;PMS5003;41911;52.362;4.978;2022-12-31T03:03:13;5.0;5.0;
55686;PMS5003;41911;52.362;4.978;2022-12-31T03:03:44;5.0;3.0;
55686;PMS5003;41911;52.362;4.978;2022-12-31T03:04:16;4.0;4.0;
55686;PMS5003;41911;52.362;4.978;2022-12-31T03:04:49;4.0;4.0;
55686;PMS5003;41911;52.362;4.978;2022-12-31T03:05:23;4.0;4.0;
55686;PMS5003;41911;52.362;4.978;2022-12-31T03:05:59;7.0;5.0;
55686;PMS5003;41911;52.362;4.978;2022-12-31T03:06:32;6.0;5.0;
55686;PMS5003;41911;52.362;4.978;2022-12-31T03:07:04;4.0;4.0;
55686;PMS5003;41911;52.362;4.978;2022-12-31T03:07:38;6.0;6.0;
55686;PMS5003;41911;52.362;4.978;2022-12-31T03:08:11;6.0;5.0;
55686;PMS5003;41911;52.362;4.978;2022-12-31T03:08:51;4.0;4.0;
55686;PMS5003;41911;52.362;4.978;2022-12-31T03:09:22;6.0;6.0;
55686;PMS5003;41911;52.362;4.978;2022-12-31T03:09:53;6.0;4.0;
55686;PMS5003;41911;52.362;4.978;2022-12-31T03:10:25;5.0;4.0;
55686;PMS5003;41911;52.362;4.978;2022-12-31T03:10:56;6.0;5.0;
55686;PMS5003;41911;52.362;4.978;2022-12-31T03:11:28;5.0;5.0;
55686;PMS5003;41911;52.362;4.978;2022-12-31T03:11:59;4.0;4.0;
55686;PMS5003;41911;52.362;4.978;2022-12-31T03:12:32;5.0;5.0;
55686;PMS5003;41911;52.362;4.978;2022-12-31T03:13:04;4.0;4.0;
55686;PMS5003;41911;52.362;4.978;2022-12-31T03:13:35;5.0;5.0;
55686;PMS5003;41911;52.362;4.978;2022-12-31T03:14:06;5.0;5.0;
55686;PMS5003;41911;52.362;4.978;2022-12-31T03:14:37;7.0;6.0;
55686;PMS5003;41911;52.362;4.978;2022-12-31T03:15:08;7.0;5.0;
55686;PMS5003;41911;52.362;4.978;2022-12-31T03:15:40;3.0;3.0;
55686;PMS5003;41911;52.362;4.978;2022-12-31T03:16:11;5.0;4.0;
55686;PMS5003;41911;52.362;4.978;2022-12-31T03:16:42;5.0;4.0;
55686;PMS5003;41911;52.362;4.978;2022-12-31T03:17:13;7.0;7.0;
55686;PMS5003;41911;52.362;4.978;2022-12-31T03:17:47;5.0;4.0;
55686;PMS5003;41911;52.362;4.978;2022-12-31T03:18:27;7.0;6.0;
55686;PMS5003;41911;52.362;4.978;2022-12-31T03:18:58;6.0;5.0;
55686;PMS5003;41911;52.362;4.978;2022-12-31T03:19:29;7.0;6.0;
55686;PMS5003;41911;52.362;4.978;2022-12-31T03:20:01;5.0;5.0;
55686;PMS5003;41911;52.362;4.978;2022-12-31T03:20:34;5.0;4.0;
55686;PMS5003;41911;52.362;4.978;2022-12-31T03:21:11;5.0;5.0;
55686;PMS5003;41911;52.362;4.978;2022-12-31T03:21:43;6.0;6.0;
55686;PMS5003;41911;52.362;4.978;2022-12-31T03:22:14;4.0;4.0;
55686;PMS5003;41911;52.362;4.978;2022-12-31T03:22:46;5.0;5.0;
55686;PMS5003;41911;52.362;4.978;2022-12-31T03:23:19;5.0;5.0;
55686;PMS5003;41911;52.362;4.978;2022-12-31T03:23:52;7.0;4.0;
55686;PMS5003;41911;52.362;4.978;2022-12-31T03:24:23;6.0;4.0;
55686;PMS5003;41911;52.362;4.978;2022-12-31T03:24:56;4.0;4.0;
55686;PMS5003;41911;52.362;4.978;2022-12-31T03:25:29;6.0;5.0;
55686;PMS5003;41911;52.362;4.978;2022-12-31T03:26:03;6.0;5.0;
55686;PMS5003;41911;52.362;4.978;2022-12-31T03:26:35;3.0;3.0;
55686;PMS5003;41911;52.362;4.978;2022-12-31T03:27:06;5.0;4.0;
55686;PMS5003;41911;52.362;4.978;2022-12-31T03:27:39;5.0;3.0;
55686;PMS5003;41911;52.362;4.978;2022-12-31T03:28:11;4.0;4.0;
55686;PMS5003;41911;52.362;4.978;2022-12-31T03:28:43;5.0;4.0;
55686;PMS5003;41911;52.362;4.978;2022-12-31T03:29:14;3.0;3.0;
55686;PMS5003;41911;52.362;4.978;2022-12-31T03:29:45;7.0;7.0;
55686;PMS5003;41911;52.362;4.978;2022-12-31T03:30:16;4.0;4.0;
55686;PMS5003;41911;52.362;4.978;2022-12-31T03:30:50;5.0;4.0;
55686;PMS5003;41911;52.362;4.978;2022-12-31T03:31:22;5.0;4.0;
55686;PMS5003;41911;52.362;4.978;2022-12-31T03:31:53;8.0;6.0;
55686;PMS5003;41911;52.362;4.978;2022-12-31T03:32:24;2.0;2.0;
55686;PMS5003;41911;52.362;4.978;2022-12-31T03:32:55;4.0;4.0;
55686;PMS5003;41911;52.362;4.978;2022-12-31T03:33:29;3.0;3.0;
55686;PMS5003;41911;52.362;4.978;2022-12-31T03:34:02;5.0;4.0;
55686;PMS5003;41911;52.362;4.978;2022-12-31T03:34:33;4.0;4.0;
55686;PMS5003;41911;52.362;4.978;2022-12-31T03:35:05;4.0;3.0;
55686;PMS5003;41911;52.362;4.978;2022-12-31T03:35:39;6.0;5.0;
55686;PMS5003;41911;52.362;4.978;2022-12-31T03:36:12;5.0;5.0;
55686;PMS5003;41911;52.362;4.978;2022-12-31T03:36:44;5.0;5.0;
55686;PMS5003;41911;52.362;4.978;2022-12-31T03:37:15;4.0;4.0;
55686;PMS5003;41911;52.362;4.978;2022-12-31T03:37:47;7.0;6.0;
55686;PMS5003;41911;52.362;4.978;2022-12-31T03:38:19;5.0;5.0;
55686;PMS5003;41911;52.362;4.978;2022-12-31T03:38:50;7.0;5.0;
55686;PMS5003;41911;52.362;4.978;2022-12-31T03:39:22;6.0;5.0;
55686;PMS5003;41911;52.362;4.978;2022-12-31T03:39:53;8.0;6.0;
55686;PMS5003;41911;52.362;4.978;2022-12-31T03:40:25;5.0;5.0;
55686;PMS5003;41911;52.362;4.978;2022-12-31T03:40:57;7.0;6.0;